createdAt,value
2022-08-08T00:00:55.312Z,6.38
2022-08-08T00:02:56.871Z,5.07
2022-08-08T00:06:04.561Z,3.10
2022-08-08T00:09:12.196Z,3.85
2022-08-08T00:12:26.726Z,3.15
2022-08-08T00:15:56.978Z,3.63
2022-08-08T00:19:00.545Z,6.07
2022-08-08T00:22:06.962Z,4.63
2022-08-08T00:25:14.636Z,4.82
2022-08-08T00:28:35.401Z,6.43
2022-08-08T00:32:20.974Z,4.43
2022-08-08T00:35:22.019Z,5.72
2022-08-08T00:38:44.468Z,4.75
2022-08-08T00:42:08.958Z,7.68
2022-08-08T00:45:36.336Z,4.43
2022-08-08T00:49:00.830Z,4.00
2022-08-08T00:52:08.295Z,5.30
2022-08-08T00:55:53.093Z,4.95
2022-08-08T00:59:12.929Z,9.57
2022-08-08T01:03:59.198Z,9.98
2022-08-08T01:06:27.225Z,9.30
2022-08-08T01:10:01.573Z,4.47
2022-08-08T01:13:43.934Z,3.55
2022-08-08T01:17:04.907Z,5.68
2022-08-08T01:20:29.511Z,5.20
2022-08-08T01:24:05.679Z,8.93
2022-08-08T01:27:32.982Z,6.13
2022-08-08T01:32:05.177Z,4.35
2022-08-08T01:34:58.785Z,3.60
2022-08-08T01:38:15.223Z,5.07
2022-08-08T01:41:27.713Z,6.53
2022-08-08T01:44:57.020Z,6.78
2022-08-08T01:48:16.743Z,3.58
2022-08-08T01:52:42.795Z,5.80
2022-08-08T01:55:44.892Z,6.25
2022-08-08T01:58:48.722Z,7.88
2022-08-08T02:02:05.225Z,4.50
2022-08-08T02:05:33.784Z,5.53
2022-08-08T02:08:58.897Z,5.50
2022-08-08T02:12:12.589Z,6.40
2022-08-08T02:15:21.970Z,5.35
2022-08-08T02:18:34.102Z,7.13
2022-08-08T02:22:03.696Z,8.70
2022-08-08T02:25:15.116Z,5.35
2022-08-08T02:28:35.393Z,6.97
2022-08-08T02:32:00.925Z,6.38
2022-08-08T02:35:17.541Z,8.85
2022-08-08T02:38:43.168Z,6.60
2022-08-08T02:42:05.796Z,10.25
2022-08-08T02:45:18.505Z,8.35
2022-08-08T02:48:34.338Z,6.50
2022-08-08T02:51:58.658Z,10.07
2022-08-08T02:55:20.548Z,6.53
2022-08-08T02:58:40.867Z,8.98
2022-08-08T03:02:03.572Z,7.80
2022-08-08T03:05:45.191Z,14.00
2022-08-08T03:09:20.528Z,8.77
2022-08-08T03:12:36.259Z,9.45
2022-08-08T03:16:09.625Z,8.98
2022-08-08T03:19:39.933Z,7.43
2022-08-08T03:23:00.641Z,9.02
2022-08-08T03:26:08.507Z,6.30
2022-08-08T03:29:16.886Z,11.18
2022-08-08T03:32:41.378Z,13.00
2022-08-08T03:35:45.432Z,15.02
2022-08-08T03:39:07.369Z,11.05
2022-08-08T03:42:38.507Z,12.23
2022-08-08T03:46:06.251Z,9.45
2022-08-08T03:49:30.150Z,9.82
2022-08-08T03:52:26.812Z,9.15
2022-08-08T03:55:55.957Z,10.90
2022-08-08T03:58:56.755Z,22.05
2022-08-08T04:02:32.735Z,11.90
2022-08-08T04:05:28.548Z,12.43
2022-08-08T04:08:37.077Z,10.90
2022-08-08T04:11:59.170Z,13.20
2022-08-08T04:15:22.267Z,13.05
2022-08-08T04:18:26.021Z,11.05
2022-08-08T04:21:28.836Z,18.23
2022-08-08T04:24:42.318Z,11.90
2022-08-08T04:28:02.256Z,13.32
2022-08-08T04:31:56.886Z,9.73
2022-08-08T04:34:55.353Z,11.35
2022-08-08T04:38:04.012Z,11.30
2022-08-08T04:41:17.895Z,14.43
2022-08-08T04:44:26.718Z,13.77
2022-08-08T04:47:30.768Z,11.15
2022-08-08T04:54:26.838Z,14.70
2022-08-08T04:57:05.341Z,13.27
2022-08-08T05:00:11.211Z,10.38
2022-08-08T05:03:19.160Z,11.00
2022-08-08T05:06:39.812Z,15.75
2022-08-08T05:09:44.056Z,13.45
2022-08-08T05:12:59.848Z,14.23
2022-08-08T05:16:52.053Z,10.00
2022-08-08T05:20:09.731Z,13.73
2022-08-08T05:23:06.228Z,13.35
2022-08-08T05:26:09.644Z,20.98
2022-08-08T05:29:17.288Z,15.38
2022-08-08T05:32:24.819Z,9.50
2022-08-08T05:35:32.503Z,12.82
2022-08-08T05:38:37.688Z,10.98
2022-08-08T05:41:54.796Z,13.70
2022-08-08T05:45:24.596Z,14.20
2022-08-08T05:48:28.905Z,10.63
2022-08-08T05:51:48.480Z,11.60
2022-08-08T05:55:02.085Z,14.35
2022-08-08T05:58:17.796Z,17.52
2022-08-08T06:01:57.487Z,14.77
2022-08-08T06:04:54.866Z,10.70
2022-08-08T06:08:02.438Z,12.27
2022-08-08T06:11:06.514Z,13.15
2022-08-08T06:14:12.834Z,11.75
2022-08-08T06:17:50.258Z,14.13
2022-08-08T06:20:50.249Z,17.08
2022-08-08T06:24:04.888Z,12.20
2022-08-08T06:27:11.025Z,10.07
2022-08-08T06:30:28.307Z,14.65
2022-08-08T06:34:25.742Z,13.18
2022-08-08T06:37:10.136Z,17.55
2022-08-08T06:40:27.264Z,11.02
2022-08-08T06:43:34.442Z,15.65
2022-08-08T06:46:57.716Z,14.68
2022-08-08T06:50:04.080Z,12.60
2022-08-08T06:53:17.276Z,14.88
2022-08-08T06:56:29.308Z,12.93
2022-08-08T07:00:10.818Z,12.77
2022-08-08T07:03:01.233Z,13.10
2022-08-08T07:06:10.511Z,11.75
2022-08-08T07:09:21.118Z,11.65
2022-08-08T07:12:30.472Z,11.43
2022-08-08T07:16:03.814Z,11.10
2022-08-08T07:19:07.796Z,10.88
2022-08-08T07:22:19.438Z,9.65
2022-08-08T07:25:32.194Z,11.85
2022-08-08T07:28:37.559Z,11.38
2022-08-08T07:31:44.076Z,10.25
2022-08-08T07:35:01.336Z,15.05
2022-08-08T07:38:18.490Z,21.42
2022-08-08T07:42:03.898Z,13.40
2022-08-08T07:45:01.954Z,8.98
2022-08-08T07:48:06.201Z,20.42
2022-08-08T07:51:23.785Z,7.07
2022-08-08T07:54:40.974Z,13.15
2022-08-08T07:57:49.042Z,12.57
2022-08-08T08:01:00.046Z,10.68
2022-08-08T08:04:04.416Z,13.05
2022-08-08T08:07:10.871Z,11.20
2022-08-08T08:10:18.045Z,7.13
2022-08-08T08:13:42.898Z,9.77
2022-08-08T08:17:00.978Z,8.73
2022-08-08T08:20:05.614Z,7.90
2022-08-08T08:23:13.339Z,5.63
2022-08-08T08:26:27.555Z,8.18
2022-08-08T08:29:33.569Z,5.75
2022-08-08T08:32:49.271Z,8.65
2022-08-08T08:36:18.703Z,9.05
2022-08-08T08:39:23.138Z,10.88
2022-08-08T08:42:31.758Z,6.90
2022-08-08T08:45:42.224Z,6.60
2022-08-08T08:48:49.654Z,7.57
2022-08-08T08:51:53.968Z,3.83
2022-08-08T08:55:01.698Z,9.35
2022-08-08T08:58:05.497Z,5.60
2022-08-08T09:01:13.444Z,9.70
2022-08-08T09:04:30.871Z,6.50
2022-08-08T09:07:39.489Z,8.15
2022-08-08T09:10:56.357Z,8.80
2022-08-08T09:14:01.794Z,5.40
2022-08-08T09:17:12.869Z,4.18
2022-08-08T09:21:59.698Z,5.80
2022-08-08T09:23:43.872Z,5.20
2022-08-08T09:26:53.724Z,7.88
2022-08-08T09:30:02.039Z,5.47
2022-08-08T09:33:54.196Z,6.68
2022-08-08T09:36:36.120Z,5.75
2022-08-08T09:39:43.023Z,5.93
2022-08-08T09:42:51.832Z,21.15
2022-08-08T09:46:03.281Z,8.05
2022-08-08T09:49:41.582Z,5.18
2022-08-08T09:52:56.827Z,6.35
2022-08-08T09:56:05.692Z,3.45
2022-08-08T09:59:42.681Z,5.82
2022-08-08T10:02:36.444Z,4.30
2022-08-08T10:05:41.939Z,7.82
2022-08-08T10:08:50.038Z,3.42
2022-08-08T10:12:27.250Z,6.65
2022-08-08T10:15:17.336Z,3.33
2022-08-08T10:18:27.696Z,4.93
2022-08-08T10:21:34.282Z,4.22
2022-08-08T10:24:46.982Z,5.10
2022-08-08T10:27:52.134Z,5.70
2022-08-08T10:31:01.888Z,4.78
2022-08-08T10:34:20.177Z,3.88
2022-08-08T10:37:27.682Z,4.90
2022-08-08T10:40:33.319Z,4.55
2022-08-08T10:43:40.193Z,2.45
2022-08-08T10:46:46.203Z,3.53
2022-08-08T10:50:02.220Z,3.33
2022-08-08T10:53:12.593Z,3.42
2022-08-08T10:56:26.997Z,4.55
2022-08-08T10:59:40.768Z,4.53
2022-08-08T11:02:43.512Z,3.45
2022-08-08T11:05:51.812Z,5.60
2022-08-08T11:09:15.584Z,4.55
2022-08-08T11:12:24.375Z,8.63
2022-08-08T11:15:31.352Z,3.53
2022-08-08T11:18:35.094Z,5.03
2022-08-08T11:21:41.257Z,4.07
2022-08-08T11:24:46.912Z,6.75
2022-08-08T11:27:50.972Z,4.30
2022-08-08T11:30:54.119Z,3.92
2022-08-08T11:37:15.046Z,10.15
2022-08-08T11:40:22.509Z,2.53
2022-08-08T11:43:39.405Z,4.78
2022-08-08T11:46:44.634Z,4.07
2022-08-08T11:49:50.265Z,5.05
2022-08-08T11:52:54.412Z,4.15
2022-08-08T11:56:08.588Z,2.90
2022-08-08T11:59:13.238Z,5.20
2022-08-08T12:02:31.772Z,2.95
2022-08-08T12:05:36.909Z,3.70
2022-08-08T12:08:40.097Z,5.05
2022-08-08T12:11:45.873Z,3.30
2022-08-08T12:14:59.932Z,4.75
2022-08-08T12:18:13.454Z,5.00
2022-08-08T12:21:25.903Z,3.90
2022-08-08T12:24:51.495Z,4.20
2022-08-08T12:28:15.495Z,2.88
2022-08-08T12:31:18.695Z,2.88
2022-08-08T12:34:36.348Z,6.03
2022-08-08T12:37:41.048Z,3.88
2022-08-08T12:40:56.277Z,3.17
2022-08-08T12:44:06.692Z,4.07
2022-08-08T12:47:12.954Z,6.18
2022-08-08T12:50:15.772Z,6.10
2022-08-08T12:53:21.169Z,5.00
2022-08-08T12:56:34.006Z,6.03
2022-08-08T13:00:03.412Z,5.50
2022-08-08T13:03:09.011Z,5.28
2022-08-08T13:06:14.948Z,2.80
2022-08-08T13:09:18.620Z,6.45
2022-08-08T13:12:37.184Z,3.38
2022-08-08T13:15:45.707Z,5.07
2022-08-08T13:19:02.585Z,4.47
2022-08-08T13:22:16.177Z,6.68
2022-08-08T13:25:22.110Z,5.00
2022-08-08T13:28:29.128Z,2.72
2022-08-08T13:31:36.811Z,4.05
2022-08-08T13:34:42.692Z,5.00
2022-08-08T13:41:16.457Z,6.50
2022-08-08T13:44:19.869Z,3.30
2022-08-08T13:47:23.829Z,3.97
2022-08-08T13:50:34.979Z,4.88
2022-08-08T13:53:53.248Z,3.60
2022-08-08T13:57:00.975Z,5.00
2022-08-08T14:00:08.999Z,4.10
2022-08-08T14:03:52.461Z,3.90
2022-08-08T14:06:48.488Z,5.07
2022-08-08T14:10:11.966Z,4.47
2022-08-08T14:13:31.100Z,6.45
2022-08-08T14:16:36.684Z,6.90
2022-08-08T14:19:57.275Z,4.72
2022-08-08T14:23:10.162Z,4.13
2022-08-08T14:26:20.905Z,4.32
2022-08-08T14:29:30.538Z,3.55
2022-08-08T14:32:33.576Z,8.88
2022-08-08T14:35:38.987Z,3.58
2022-08-08T14:38:51.853Z,5.45
2022-08-08T14:45:00.359Z,3.17
2022-08-08T14:48:04.127Z,3.50
2022-08-08T14:51:08.301Z,3.53
2022-08-08T14:54:29.051Z,4.40
2022-08-08T14:58:03.093Z,7.63
2022-08-08T15:00:55.316Z,4.38
2022-08-08T15:04:08.777Z,8.23
2022-08-08T15:07:22.579Z,4.32
2022-08-08T15:10:28.973Z,6.40
2022-08-08T15:13:39.934Z,4.28
2022-08-08T15:16:49.832Z,3.30
2022-08-08T15:20:01.259Z,3.78
2022-08-08T15:23:05.818Z,4.05
2022-08-08T15:26:13.098Z,3.10
2022-08-08T15:29:16.157Z,2.83
2022-08-08T15:32:20.574Z,5.80
2022-08-08T15:35:37.469Z,3.88
2022-08-08T15:38:50.323Z,5.38
2022-08-08T15:41:53.217Z,6.38
2022-08-08T15:44:56.872Z,5.20
2022-08-08T15:48:05.519Z,3.35
2022-08-08T15:51:18.245Z,4.85
2022-08-08T15:54:38.077Z,4.18
2022-08-08T15:57:42.768Z,4.18
2022-08-08T16:00:47.350Z,2.95
2022-08-08T16:03:53.380Z,5.97
2022-08-08T16:06:56.172Z,2.65
2022-08-08T16:13:07.773Z,6.65
2022-08-08T16:13:30.634Z,5.80
2022-08-08T16:16:38.670Z,4.80
2022-08-08T16:19:57.214Z,5.30
2022-08-08T16:23:03.713Z,3.08
2022-08-08T16:26:12.952Z,3.08
2022-08-08T16:29:23.807Z,5.10
2022-08-08T16:32:40.502Z,4.60
2022-08-08T16:35:43.682Z,6.50
2022-08-08T16:38:54.040Z,6.05
2022-08-08T16:42:00.948Z,5.78
2022-08-08T16:45:11.344Z,4.05
2022-08-08T16:48:27.190Z,3.03
2022-08-08T16:55:05.352Z,5.30
2022-08-08T16:58:25.571Z,2.92
2022-08-08T17:01:31.005Z,2.30
2022-08-08T17:04:43.357Z,4.38
2022-08-08T17:10:58.676Z,4.47
2022-08-08T17:14:18.651Z,3.85
2022-08-08T17:17:41.762Z,5.55
2022-08-08T17:20:45.113Z,7.10
2022-08-08T17:23:58.447Z,8.85
2022-08-08T17:27:05.114Z,6.57
2022-08-08T17:30:23.367Z,11.48
2022-08-08T17:34:54.461Z,4.50
2022-08-08T17:37:02.714Z,3.75
2022-08-08T17:40:13.109Z,3.78
2022-08-08T17:43:17.776Z,4.20
2022-08-08T17:46:41.750Z,6.47
2022-08-08T17:49:45.350Z,3.28
2022-08-08T17:52:52.743Z,2.72
2022-08-08T17:56:05.563Z,5.07
2022-08-08T17:59:10.664Z,4.13
2022-08-08T18:02:16.442Z,8.73
2022-08-08T18:05:24.232Z,2.28
2022-08-08T18:08:40.878Z,7.28
2022-08-08T18:11:44.861Z,5.53
2022-08-08T18:14:53.810Z,5.50
2022-08-08T18:18:09.932Z,4.82
2022-08-08T18:21:35.630Z,7.13
2022-08-08T18:24:43.717Z,5.55
2022-08-08T18:27:51.334Z,4.90
2022-08-08T18:30:54.045Z,6.45
2022-08-08T18:34:11.125Z,5.30
2022-08-08T18:37:34.255Z,6.93
2022-08-08T18:40:37.587Z,7.05
2022-08-08T18:43:42.941Z,2.90
2022-08-08T18:46:55.151Z,4.57
2022-08-08T18:50:02.864Z,4.47
2022-08-08T18:53:05.847Z,3.08
2022-08-08T18:56:20.004Z,3.35
2022-08-08T18:59:23.250Z,3.20
2022-08-08T19:02:29.434Z,4.25
2022-08-08T19:05:38.536Z,6.45
2022-08-08T19:08:48.371Z,5.00
2022-08-08T19:11:51.544Z,4.53
2022-08-08T19:14:57.290Z,2.33
2022-08-08T19:18:32.046Z,5.03
2022-08-08T19:21:30.849Z,4.72
2022-08-08T19:24:42.929Z,3.70
2022-08-08T19:27:59.937Z,15.90
2022-08-08T19:31:07.385Z,8.82
2022-08-08T19:34:29.567Z,3.60
2022-08-08T19:37:43.322Z,5.55
2022-08-08T19:40:55.695Z,5.30
2022-08-08T19:44:03.832Z,5.35
2022-08-08T19:47:15.967Z,3.30
2022-08-08T19:50:18.589Z,5.95
2022-08-08T19:53:50.756Z,4.40
2022-08-08T19:56:49.049Z,6.47
2022-08-08T19:59:51.941Z,11.95
2022-08-08T20:02:55.143Z,6.15
2022-08-08T20:06:14.704Z,5.70
2022-08-08T20:09:23.487Z,4.03
2022-08-08T20:12:32.911Z,2.55
2022-08-08T20:16:00.467Z,3.47
2022-08-08T20:19:06.506Z,3.03
2022-08-08T20:22:13.235Z,3.25
2022-08-08T20:25:34.561Z,7.38
2022-08-08T20:28:45.610Z,4.18
2022-08-08T20:32:07.603Z,6.60
2022-08-08T20:35:16.208Z,19.98
2022-08-08T20:38:31.937Z,6.00
2022-08-08T20:41:36.532Z,3.05
2022-08-08T20:44:43.777Z,4.30
2022-08-08T20:47:48.559Z,5.55
2022-08-08T20:51:00.675Z,4.68
2022-08-08T20:54:14.362Z,4.47
2022-08-08T20:57:27.975Z,7.95
2022-08-08T21:03:33.344Z,3.88
2022-08-08T21:06:56.512Z,4.90
2022-08-08T21:10:08.253Z,6.00
2022-08-08T21:13:17.185Z,2.95
2022-08-08T21:16:27.047Z,4.30
2022-08-08T21:19:44.292Z,3.60
2022-08-08T21:22:49.925Z,3.95
2022-08-08T21:25:54.821Z,9.38
2022-08-08T21:29:00.928Z,4.35
2022-08-08T21:32:07.651Z,7.57
2022-08-08T21:36:16.798Z,6.78
2022-08-08T21:38:39.989Z,6.00
2022-08-08T21:41:53.899Z,7.15
2022-08-08T21:45:44.099Z,9.57
2022-08-08T21:48:35.471Z,4.78
2022-08-08T21:54:18.378Z,4.05
2022-08-08T21:56:06.606Z,4.95
2022-08-08T21:58:37.559Z,6.18
2022-08-08T22:01:42.529Z,4.20
2022-08-08T22:04:45.440Z,6.93
2022-08-08T22:07:49.025Z,4.10
2022-08-08T22:10:53.984Z,2.92
2022-08-08T22:13:57.169Z,7.40
2022-08-08T22:17:02.665Z,4.70
2022-08-08T22:20:12.322Z,2.65
2022-08-08T22:23:21.906Z,4.85
2022-08-08T22:26:32.866Z,5.40
2022-08-08T22:29:59.223Z,12.60
2022-08-08T22:32:59.542Z,8.50
2022-08-08T22:36:05.360Z,4.20
2022-08-08T22:39:19.750Z,3.95
2022-08-08T22:42:27.569Z,6.65
2022-08-08T22:45:34.986Z,5.13
2022-08-08T22:48:39.175Z,2.15
2022-08-08T22:51:46.677Z,4.70
2022-08-08T22:54:56.280Z,3.92
2022-08-08T22:58:07.200Z,2.50
2022-08-08T23:02:00.818Z,3.33
2022-08-08T23:04:35.008Z,3.38
2022-08-08T23:07:51.140Z,4.78
2022-08-08T23:11:06.451Z,8.10
2022-08-08T23:14:16.254Z,5.45
2022-08-08T23:17:18.907Z,2.83
2022-08-08T23:20:27.477Z,4.60
2022-08-08T23:23:31.444Z,8.10
2022-08-08T23:26:34.541Z,5.45
2022-08-08T23:29:37.784Z,3.60
2022-08-08T23:32:41.778Z,8.07
2022-08-08T23:35:58.837Z,9.55
2022-08-08T23:39:10.473Z,6.90
2022-08-08T23:42:13.281Z,5.18
2022-08-08T23:45:15.854Z,5.80
2022-08-08T23:49:01.450Z,10.25
2022-08-08T23:52:04.610Z,3.50
2022-08-08T23:55:14.745Z,7.15
2022-08-08T23:58:37.773Z,3.28
